sensor_id;sensor_type;location;lat;lon;timestamp;P1;durP1;ratioP1;P2;durP2;ratioP2
77701;SDS011;66868;42.708;23.404;2023-11-19T00:00:25;3.47;;;3.27;;
77701;SDS011;66868;42.708;23.404;2023-11-19T00:02:50;3.23;;;3.13;;
77701;SDS011;66868;42.708;23.404;2023-11-19T00:05:16;3.93;;;3.73;;
77701;SDS011;66868;42.708;23.404;2023-11-19T00:07:41;2.90;;;2.80;;
77701;SDS011;66868;42.708;23.404;2023-11-19T00:10:10;3.63;;;3.43;;
77701;SDS011;66868;42.708;23.404;2023-11-19T00:12:37;2.90;;;2.80;;
77701;SDS011;66868;42.708;23.404;2023-11-19T00:15:05;3.17;;;3.07;;
77701;SDS011;66868;42.708;23.404;2023-11-19T00:17:31;3.00;;;2.80;;
77701;SDS011;66868;42.708;23.404;2023-11-19T00:19:57;3.10;;;2.90;;
77701;SDS011;66868;42.708;23.404;2023-11-19T00:22:22;4.63;;;2.83;;
77701;SDS011;66868;42.708;23.404;2023-11-19T00:24:48;2.40;;;2.30;;
77701;SDS011;66868;42.708;23.404;2023-11-19T00:27:13;2.67;;;2.57;;
77701;SDS011;66868;42.708;23.404;2023-11-19T00:29:39;4.90;;;2.77;;
77701;SDS011;66868;42.708;23.404;2023-11-19T00:32:05;3.13;;;2.93;;
77701;SDS011;66868;42.708;23.404;2023-11-19T00:34:32;2.70;;;2.50;;
77701;SDS011;66868;42.708;23.404;2023-11-19T00:36:57;3.77;;;3.00;;
77701;SDS011;66868;42.708;23.404;2023-11-19T00:39:23;2.57;;;2.47;;
77701;SDS011;66868;42.708;23.404;2023-11-19T00:41:48;3.30;;;3.10;;
77701;SDS011;66868;42.708;23.404;2023-11-19T00:44:14;3.50;;;2.80;;
77701;SDS011;66868;42.708;23.404;2023-11-19T00:46:39;3.30;;;3.10;;
77701;SDS011;66868;42.708;23.404;2023-11-19T00:49:05;3.20;;;3.10;;
77701;SDS011;66868;42.708;23.404;2023-11-19T00:51:30;6.17;;;3.50;;
77701;SDS011;66868;42.708;23.404;2023-11-19T00:53:56;3.03;;;2.93;;
77701;SDS011;66868;42.708;23.404;2023-11-19T00:56:22;2.87;;;2.77;;
77701;SDS011;66868;42.708;23.404;2023-11-19T00:58:48;3.67;;;3.23;;
77701;SDS011;66868;42.708;23.404;2023-11-19T01:01:13;3.40;;;3.20;;
77701;SDS011;66868;42.708;23.404;2023-11-19T01:03:39;3.27;;;3.07;;
77701;SDS011;66868;42.708;23.404;2023-11-19T01:06:04;3.17;;;3.03;;
77701;SDS011;66868;42.708;23.404;2023-11-19T01:08:30;2.43;;;2.33;;
77701;SDS011;66868;42.708;23.404;2023-11-19T01:10:56;3.23;;;2.93;;
77701;SDS011;66868;42.708;23.404;2023-11-19T01:13:21;2.40;;;2.30;;
77701;SDS011;66868;42.708;23.404;2023-11-19T01:15:47;2.83;;;2.73;;
77701;SDS011;66868;42.708;23.404;2023-11-19T01:18:13;3.27;;;3.07;;
77701;SDS011;66868;42.708;23.404;2023-11-19T01:20:38;3.00;;;2.73;;
77701;SDS011;66868;42.708;23.404;2023-11-19T01:23:03;2.23;;;2.13;;
77701;SDS011;66868;42.708;23.404;2023-11-19T01:25:29;2.67;;;2.40;;
77701;SDS011;66868;42.708;23.404;2023-11-19T01:27:55;3.03;;;2.90;;
77701;SDS011;66868;42.708;23.404;2023-11-19T01:30:23;2.90;;;2.80;;
77701;SDS011;66868;42.708;23.404;2023-11-19T01:32:49;2.90;;;2.80;;
77701;SDS011;66868;42.708;23.404;2023-11-19T01:35:14;2.77;;;2.67;;
77701;SDS011;66868;42.708;23.404;2023-11-19T01:37:40;2.70;;;2.60;;
77701;SDS011;66868;42.708;23.404;2023-11-19T01:40:05;3.50;;;3.10;;
77701;SDS011;66868;42.708;23.404;2023-11-19T01:42:36;3.23;;;3.03;;
77701;SDS011;66868;42.708;23.404;2023-11-19T01:45:03;2.30;;;2.20;;
77701;SDS011;66868;42.708;23.404;2023-11-19T01:47:32;2.90;;;2.80;;
77701;SDS011;66868;42.708;23.404;2023-11-19T01:49:58;2.83;;;2.73;;
77701;SDS011;66868;42.708;23.404;2023-11-19T01:52:24;3.43;;;2.73;;
77701;SDS011;66868;42.708;23.404;2023-11-19T01:54:51;2.37;;;2.27;;
77701;SDS011;66868;42.708;23.404;2023-11-19T01:57:18;2.80;;;2.70;;
77701;SDS011;66868;42.708;23.404;2023-11-19T01:59:46;2.30;;;2.20;;
77701;SDS011;66868;42.708;23.404;2023-11-19T02:02:11;2.00;;;2.00;;
77701;SDS011;66868;42.708;23.404;2023-11-19T02:04:37;2.50;;;2.40;;
77701;SDS011;66868;42.708;23.404;2023-11-19T02:07:03;3.07;;;2.87;;
77701;SDS011;66868;42.708;23.404;2023-11-19T02:09:29;3.13;;;2.93;;
77701;SDS011;66868;42.708;23.404;2023-11-19T02:11:55;3.37;;;2.80;;
77701;SDS011;66868;42.708;23.404;2023-11-19T02:14:22;2.20;;;2.10;;
77701;SDS011;66868;42.708;23.404;2023-11-19T02:16:50;3.03;;;2.83;;
77701;SDS011;66868;42.708;23.404;2023-11-19T02:19:18;2.90;;;2.53;;
77701;SDS011;66868;42.708;23.404;2023-11-19T02:21:44;2.23;;;2.17;;
77701;SDS011;66868;42.708;23.404;2023-11-19T02:24:10;3.13;;;2.93;;
77701;SDS011;66868;42.708;23.404;2023-11-19T02:26:40;2.60;;;2.40;;
77701;SDS011;66868;42.708;23.404;2023-11-19T02:29:12;2.53;;;2.33;;
77701;SDS011;66868;42.708;23.404;2023-11-19T02:31:38;3.80;;;2.67;;
77701;SDS011;66868;42.708;23.404;2023-11-19T02:34:04;2.83;;;2.40;;
77701;SDS011;66868;42.708;23.404;2023-11-19T02:36:30;2.73;;;2.63;;
77701;SDS011;66868;42.708;23.404;2023-11-19T02:38:57;2.17;;;2.07;;
77701;SDS011;66868;42.708;23.404;2023-11-19T02:41:23;2.60;;;2.50;;
77701;SDS011;66868;42.708;23.404;2023-11-19T02:43:49;3.70;;;2.37;;
77701;SDS011;66868;42.708;23.404;2023-11-19T02:46:14;3.60;;;3.40;;
77701;SDS011;66868;42.708;23.404;2023-11-19T02:48:42;2.93;;;2.73;;
77701;SDS011;66868;42.708;23.404;2023-11-19T02:51:09;3.23;;;3.03;;
77701;SDS011;66868;42.708;23.404;2023-11-19T02:53:36;2.83;;;2.73;;
77701;SDS011;66868;42.708;23.404;2023-11-19T02:56:05;2.93;;;2.73;;
77701;SDS011;66868;42.708;23.404;2023-11-19T02:58:37;2.73;;;2.57;;
77701;SDS011;66868;42.708;23.404;2023-11-19T03:01:04;2.73;;;2.63;;
77701;SDS011;66868;42.708;23.404;2023-11-19T03:03:37;2.60;;;2.50;;
77701;SDS011;66868;42.708;23.404;2023-11-19T03:06:05;2.73;;;2.63;;
77701;SDS011;66868;42.708;23.404;2023-11-19T03:08:31;2.87;;;2.67;;
77701;SDS011;66868;42.708;23.404;2023-11-19T03:10:58;2.83;;;2.73;;
77701;SDS011;66868;42.708;23.404;2023-11-19T03:13:24;2.77;;;2.67;;
77701;SDS011;66868;42.708;23.404;2023-11-19T03:15:49;2.77;;;2.67;;
77701;SDS011;66868;42.708;23.404;2023-11-19T03:18:15;3.10;;;3.00;;
77701;SDS011;66868;42.708;23.404;2023-11-19T03:20:40;2.97;;;2.87;;
77701;SDS011;66868;42.708;23.404;2023-11-19T03:23:06;3.23;;;2.93;;
77701;SDS011;66868;42.708;23.404;2023-11-19T03:25:31;2.33;;;2.27;;
77701;SDS011;66868;42.708;23.404;2023-11-19T03:28:02;3.53;;;3.33;;
77701;SDS011;66868;42.708;23.404;2023-11-19T03:30:28;3.17;;;3.00;;
77701;SDS011;66868;42.708;23.404;2023-11-19T03:32:55;3.10;;;2.80;;
77701;SDS011;66868;42.708;23.404;2023-11-19T03:35:21;3.23;;;3.07;;
77701;SDS011;66868;42.708;23.404;2023-11-19T03:37:47;3.33;;;3.13;;
77701;SDS011;66868;42.708;23.404;2023-11-19T03:40:12;2.90;;;2.80;;
77701;SDS011;66868;42.708;23.404;2023-11-19T03:42:39;2.50;;;2.40;;
77701;SDS011;66868;42.708;23.404;2023-11-19T03:45:05;3.27;;;3.07;;
77701;SDS011;66868;42.708;23.404;2023-11-19T03:47:33;2.80;;;2.70;;
77701;SDS011;66868;42.708;23.404;2023-11-19T03:50:02;5.43;;;2.80;;
77701;SDS011;66868;42.708;23.404;2023-11-19T03:52:28;2.70;;;2.60;;
77701;SDS011;66868;42.708;23.404;2023-11-19T03:54:54;3.00;;;2.80;;
77701;SDS011;66868;42.708;23.404;2023-11-19T03:57:23;2.67;;;2.57;;
77701;SDS011;66868;42.708;23.404;2023-11-19T03:59:49;2.90;;;2.63;;
77701;SDS011;66868;42.708;23.404;2023-11-19T04:02:15;3.20;;;3.00;;
77701;SDS011;66868;42.708;23.404;2023-11-19T04:04:41;3.10;;;2.90;;
77701;SDS011;66868;42.708;23.404;2023-11-19T04:07:06;2.30;;;2.20;;
77701;SDS011;66868;42.708;23.404;2023-11-19T04:09:31;2.37;;;2.17;;
77701;SDS011;66868;42.708;23.404;2023-11-19T04:12:06;2.57;;;2.47;;
77701;SDS011;66868;42.708;23.404;2023-11-19T04:14:32;4.50;;;3.07;;
77701;SDS011;66868;42.708;23.404;2023-11-19T04:16:57;2.87;;;2.77;;
77701;SDS011;66868;42.708;23.404;2023-11-19T04:19:23;3.80;;;3.03;;
77701;SDS011;66868;42.708;23.404;2023-11-19T04:21:49;2.63;;;2.53;;
77701;SDS011;66868;42.708;23.404;2023-11-19T04:24:15;3.03;;;2.77;;
77701;SDS011;66868;42.708;23.404;2023-11-19T04:26:43;2.33;;;2.23;;
77701;SDS011;66868;42.708;23.404;2023-11-19T04:29:13;3.70;;;2.77;;
77701;SDS011;66868;42.708;23.404;2023-11-19T04:31:40;2.33;;;2.23;;
77701;SDS011;66868;42.708;23.404;2023-11-19T04:34:06;2.73;;;2.63;;
77701;SDS011;66868;42.708;23.404;2023-11-19T04:36:32;2.80;;;2.70;;
77701;SDS011;66868;42.708;23.404;2023-11-19T04:38:58;3.00;;;2.83;;
77701;SDS011;66868;42.708;23.404;2023-11-19T04:41:24;3.03;;;2.83;;
77701;SDS011;66868;42.708;23.404;2023-11-19T04:43:50;2.77;;;2.53;;
77701;SDS011;66868;42.708;23.404;2023-11-19T04:46:16;2.40;;;2.30;;
77701;SDS011;66868;42.708;23.404;2023-11-19T04:48:41;3.10;;;2.90;;
77701;SDS011;66868;42.708;23.404;2023-11-19T04:51:07;2.87;;;2.67;;
77701;SDS011;66868;42.708;23.404;2023-11-19T04:53:34;2.20;;;2.10;;
77701;SDS011;66868;42.708;23.404;2023-11-19T04:56:00;2.40;;;2.30;;
77701;SDS011;66868;42.708;23.404;2023-11-19T04:58:25;2.60;;;2.37;;
77701;SDS011;66868;42.708;23.404;2023-11-19T05:00:51;3.53;;;2.77;;
77701;SDS011;66868;42.708;23.404;2023-11-19T05:03:16;2.80;;;2.70;;
77701;SDS011;66868;42.708;23.404;2023-11-19T05:05:42;3.17;;;2.97;;
77701;SDS011;66868;42.708;23.404;2023-11-19T05:08:08;3.07;;;2.80;;
77701;SDS011;66868;42.708;23.404;2023-11-19T05:10:33;3.50;;;3.30;;
77701;SDS011;66868;42.708;23.404;2023-11-19T05:12:59;3.07;;;2.87;;
77701;SDS011;66868;42.708;23.404;2023-11-19T05:15:24;2.90;;;2.80;;
77701;SDS011;66868;42.708;23.404;2023-11-19T05:17:49;3.50;;;3.27;;
77701;SDS011;66868;42.708;23.404;2023-11-19T05:20:15;2.57;;;2.37;;
77701;SDS011;66868;42.708;23.404;2023-11-19T05:22:41;3.67;;;2.43;;
77701;SDS011;66868;42.708;23.404;2023-11-19T05:25:08;3.17;;;2.97;;
77701;SDS011;66868;42.708;23.404;2023-11-19T05:27:34;3.60;;;3.03;;
77701;SDS011;66868;42.708;23.404;2023-11-19T05:30:01;2.93;;;2.63;;
77701;SDS011;66868;42.708;23.404;2023-11-19T05:32:27;3.40;;;3.20;;
77701;SDS011;66868;42.708;23.404;2023-11-19T05:34:52;3.60;;;3.30;;
77701;SDS011;66868;42.708;23.404;2023-11-19T05:37:18;2.83;;;2.63;;
77701;SDS011;66868;42.708;23.404;2023-11-19T05:39:44;2.70;;;2.60;;
77701;SDS011;66868;42.708;23.404;2023-11-19T05:42:10;3.20;;;3.00;;
77701;SDS011;66868;42.708;23.404;2023-11-19T05:44:35;2.20;;;2.10;;
77701;SDS011;66868;42.708;23.404;2023-11-19T05:47:01;2.63;;;2.43;;
77701;SDS011;66868;42.708;23.404;2023-11-19T05:49:27;9.03;;;2.70;;
77701;SDS011;66868;42.708;23.404;2023-11-19T05:51:52;3.03;;;2.73;;
77701;SDS011;66868;42.708;23.404;2023-11-19T05:54:20;3.20;;;2.93;;
77701;SDS011;66868;42.708;23.404;2023-11-19T05:56:49;2.30;;;2.20;;
77701;SDS011;66868;42.708;23.404;2023-11-19T05:59:15;2.90;;;2.80;;
77701;SDS011;66868;42.708;23.404;2023-11-19T06:01:43;3.30;;;3.00;;
77701;SDS011;66868;42.708;23.404;2023-11-19T06:04:09;4.17;;;2.63;;
77701;SDS011;66868;42.708;23.404;2023-11-19T06:06:35;2.60;;;2.50;;
77701;SDS011;66868;42.708;23.404;2023-11-19T06:09:16;3.83;;;3.53;;
77701;SDS011;66868;42.708;23.404;2023-11-19T06:11:43;2.93;;;2.73;;
77701;SDS011;66868;42.708;23.404;2023-11-19T06:14:09;4.53;;;2.60;;
77701;SDS011;66868;42.708;23.404;2023-11-19T06:16:35;3.13;;;2.93;;
77701;SDS011;66868;42.708;23.404;2023-11-19T06:19:01;4.10;;;3.80;;
77701;SDS011;66868;42.708;23.404;2023-11-19T06:21:27;3.20;;;3.00;;
77701;SDS011;66868;42.708;23.404;2023-11-19T06:23:52;2.60;;;2.50;;
77701;SDS011;66868;42.708;23.404;2023-11-19T06:26:18;2.37;;;2.27;;
77701;SDS011;66868;42.708;23.404;2023-11-19T06:28:43;3.40;;;3.20;;
77701;SDS011;66868;42.708;23.404;2023-11-19T06:31:09;2.20;;;2.10;;
77701;SDS011;66868;42.708;23.404;2023-11-19T06:33:35;2.90;;;2.70;;
77701;SDS011;66868;42.708;23.404;2023-11-19T06:36:00;6.40;;;3.77;;
77701;SDS011;66868;42.708;23.404;2023-11-19T06:38:26;3.13;;;2.93;;
77701;SDS011;66868;42.708;23.404;2023-11-19T06:40:51;2.93;;;2.83;;
77701;SDS011;66868;42.708;23.404;2023-11-19T06:43:17;3.43;;;3.27;;
77701;SDS011;66868;42.708;23.404;2023-11-19T06:45:43;3.97;;;3.73;;
77701;SDS011;66868;42.708;23.404;2023-11-19T06:48:08;3.27;;;3.07;;
77701;SDS011;66868;42.708;23.404;2023-11-19T06:50:33;4.47;;;3.63;;
77701;SDS011;66868;42.708;23.404;2023-11-19T06:52:59;3.17;;;2.97;;
77701;SDS011;66868;42.708;23.404;2023-11-19T06:55:25;3.33;;;3.13;;
77701;SDS011;66868;42.708;23.404;2023-11-19T06:57:51;3.67;;;3.30;;
77701;SDS011;66868;42.708;23.404;2023-11-19T07:00:17;3.57;;;3.27;;
77701;SDS011;66868;42.708;23.404;2023-11-19T07:02:43;3.50;;;3.23;;
77701;SDS011;66868;42.708;23.404;2023-11-19T07:05:09;3.33;;;2.63;;
77701;SDS011;66868;42.708;23.404;2023-11-19T07:07:37;3.13;;;2.93;;
77701;SDS011;66868;42.708;23.404;2023-11-19T07:10:02;3.70;;;3.50;;
77701;SDS011;66868;42.708;23.404;2023-11-19T07:12:29;3.73;;;3.53;;
77701;SDS011;66868;42.708;23.404;2023-11-19T07:14:55;3.77;;;3.57;;
77701;SDS011;66868;42.708;23.404;2023-11-19T07:17:21;3.40;;;3.17;;
77701;SDS011;66868;42.708;23.404;2023-11-19T07:19:47;3.53;;;3.23;;
77701;SDS011;66868;42.708;23.404;2023-11-19T07:22:15;3.87;;;3.57;;
77701;SDS011;66868;42.708;23.404;2023-11-19T07:24:41;4.20;;;3.90;;
77701;SDS011;66868;42.708;23.404;2023-11-19T07:27:06;3.23;;;3.03;;
77701;SDS011;66868;42.708;23.404;2023-11-19T07:29:33;3.47;;;3.17;;
77701;SDS011;66868;42.708;23.404;2023-11-19T07:31:59;3.17;;;2.87;;
77701;SDS011;66868;42.708;23.404;2023-11-19T07:34:27;3.37;;;3.10;;
77701;SDS011;66868;42.708;23.404;2023-11-19T07:36:52;3.97;;;3.77;;
77701;SDS011;66868;42.708;23.404;2023-11-19T07:39:18;3.13;;;2.83;;
77701;SDS011;66868;42.708;23.404;2023-11-19T07:41:45;4.50;;;2.63;;
77701;SDS011;66868;42.708;23.404;2023-11-19T07:44:11;3.20;;;3.00;;
77701;SDS011;66868;42.708;23.404;2023-11-19T07:46:36;3.53;;;3.23;;
77701;SDS011;66868;42.708;23.404;2023-11-19T07:49:02;3.33;;;3.13;;
77701;SDS011;66868;42.708;23.404;2023-11-19T07:51:28;3.80;;;3.50;;
77701;SDS011;66868;42.708;23.404;2023-11-19T07:53:53;3.40;;;3.13;;
77701;SDS011;66868;42.708;23.404;2023-11-19T07:56:19;3.10;;;2.80;;
77701;SDS011;66868;42.708;23.404;2023-11-19T07:58:44;2.97;;;2.80;;
77701;SDS011;66868;42.708;23.404;2023-11-19T08:01:10;3.70;;;3.40;;
77701;SDS011;66868;42.708;23.404;2023-11-19T08:03:35;3.30;;;3.00;;
77701;SDS011;66868;42.708;23.404;2023-11-19T08:06:01;3.97;;;3.50;;
77701;SDS011;66868;42.708;23.404;2023-11-19T08:08:27;4.37;;;4.00;;
77701;SDS011;66868;42.708;23.404;2023-11-19T08:10:54;3.63;;;3.43;;
77701;SDS011;66868;42.708;23.404;2023-11-19T08:13:21;3.73;;;3.47;;
77701;SDS011;66868;42.708;23.404;2023-11-19T08:15:48;3.43;;;3.23;;
77701;SDS011;66868;42.708;23.404;2023-11-19T08:18:13;4.20;;;3.90;;
77701;SDS011;66868;42.708;23.404;2023-11-19T08:20:39;3.50;;;3.10;;
77701;SDS011;66868;42.708;23.404;2023-11-19T08:23:04;3.37;;;3.10;;
77701;SDS011;66868;42.708;23.404;2023-11-19T08:25:31;3.90;;;3.40;;
77701;SDS011;66868;42.708;23.404;2023-11-19T08:27:58;3.03;;;2.90;;
77701;SDS011;66868;42.708;23.404;2023-11-19T08:30:24;3.00;;;2.80;;
77701;SDS011;66868;42.708;23.404;2023-11-19T08:32:50;3.47;;;3.23;;
77701;SDS011;66868;42.708;23.404;2023-11-19T08:35:15;4.60;;;4.20;;
77701;SDS011;66868;42.708;23.404;2023-11-19T08:37:41;5.60;;;4.40;;
77701;SDS011;66868;42.708;23.404;2023-11-19T08:40:07;4.37;;;3.70;;
77701;SDS011;66868;42.708;23.404;2023-11-19T08:42:33;4.50;;;4.17;;
77701;SDS011;66868;42.708;23.404;2023-11-19T08:44:58;3.47;;;3.30;;
77701;SDS011;66868;42.708;23.404;2023-11-19T08:47:24;3.90;;;3.70;;
77701;SDS011;66868;42.708;23.404;2023-11-19T08:49:52;3.40;;;3.20;;
77701;SDS011;66868;42.708;23.404;2023-11-19T08:52:18;3.57;;;3.33;;
77701;SDS011;66868;42.708;23.404;2023-11-19T08:54:44;2.93;;;2.63;;
77701;SDS011;66868;42.708;23.404;2023-11-19T08:57:09;3.93;;;3.50;;
77701;SDS011;66868;42.708;23.404;2023-11-19T08:59:35;2.87;;;2.73;;
77701;SDS011;66868;42.708;23.404;2023-11-19T09:02:03;2.90;;;2.70;;
77701;SDS011;66868;42.708;23.404;2023-11-19T09:04:32;3.53;;;3.27;;
77701;SDS011;66868;42.708;23.404;2023-11-19T09:06:57;3.30;;;3.10;;
77701;SDS011;66868;42.708;23.404;2023-11-19T09:09:23;3.57;;;3.37;;
77701;SDS011;66868;42.708;23.404;2023-11-19T09:11:48;3.73;;;3.50;;
77701;SDS011;66868;42.708;23.404;2023-11-19T09:14:14;3.93;;;3.53;;
77701;SDS011;66868;42.708;23.404;2023-11-19T09:16:39;3.50;;;2.90;;
77701;SDS011;66868;42.708;23.404;2023-11-19T09:19:05;2.77;;;2.57;;
77701;SDS011;66868;42.708;23.404;2023-11-19T09:21:30;2.57;;;2.43;;
77701;SDS011;66868;42.708;23.404;2023-11-19T09:23:56;4.73;;;3.10;;
77701;SDS011;66868;42.708;23.404;2023-11-19T09:26:22;3.00;;;2.90;;
77701;SDS011;66868;42.708;23.404;2023-11-19T09:28:47;2.90;;;2.70;;
77701;SDS011;66868;42.708;23.404;2023-11-19T09:31:13;3.50;;;3.30;;
77701;SDS011;66868;42.708;23.404;2023-11-19T09:33:43;3.43;;;3.23;;
77701;SDS011;66868;42.708;23.404;2023-11-19T09:36:09;3.23;;;2.67;;
77701;SDS011;66868;42.708;23.404;2023-11-19T09:38:37;3.00;;;2.73;;
77701;SDS011;66868;42.708;23.404;2023-11-19T09:41:06;4.00;;;2.80;;
77701;SDS011;66868;42.708;23.404;2023-11-19T09:43:33;3.20;;;3.00;;
77701;SDS011;66868;42.708;23.404;2023-11-19T09:46:02;2.97;;;2.87;;
77701;SDS011;66868;42.708;23.404;2023-11-19T09:48:32;3.60;;;3.40;;
77701;SDS011;66868;42.708;23.404;2023-11-19T09:51:00;3.23;;;3.03;;
77701;SDS011;66868;42.708;23.404;2023-11-19T09:53:26;3.70;;;3.50;;
77701;SDS011;66868;42.708;23.404;2023-11-19T09:55:52;3.30;;;3.10;;
77701;SDS011;66868;42.708;23.404;2023-11-19T09:58:18;3.43;;;3.23;;
77701;SDS011;66868;42.708;23.404;2023-11-19T10:00:43;2.73;;;2.63;;
77701;SDS011;66868;42.708;23.404;2023-11-19T10:03:09;2.73;;;2.63;;
77701;SDS011;66868;42.708;23.404;2023-11-19T10:05:37;2.70;;;2.40;;
77701;SDS011;66868;42.708;23.404;2023-11-19T10:08:04;2.80;;;2.70;;
77701;SDS011;66868;42.708;23.404;2023-11-19T10:10:30;2.83;;;2.63;;
77701;SDS011;66868;42.708;23.404;2023-11-19T10:12:55;5.43;;;3.27;;
77701;SDS011;66868;42.708;23.404;2023-11-19T10:15:22;2.80;;;2.60;;
77701;SDS011;66868;42.708;23.404;2023-11-19T10:17:57;2.30;;;2.20;;
77701;SDS011;66868;42.708;23.404;2023-11-19T10:20:23;2.60;;;2.43;;
77701;SDS011;66868;42.708;23.404;2023-11-19T10:22:52;2.40;;;2.30;;
77701;SDS011;66868;42.708;23.404;2023-11-19T10:25:36;2.80;;;2.70;;
77701;SDS011;66868;42.708;23.404;2023-11-19T10:28:01;4.40;;;2.50;;
77701;SDS011;66868;42.708;23.404;2023-11-19T10:30:28;4.47;;;2.80;;
77701;SDS011;66868;42.708;23.404;2023-11-19T10:35:50;2.90;;;2.70;;
77701;SDS011;66868;42.708;23.404;2023-11-19T10:38:19;2.73;;;2.53;;
77701;SDS011;66868;42.708;23.404;2023-11-19T10:40:45;3.17;;;2.97;;
77701;SDS011;66868;42.708;23.404;2023-11-19T10:43:10;2.40;;;2.30;;
77701;SDS011;66868;42.708;23.404;2023-11-19T10:45:36;3.10;;;2.90;;
77701;SDS011;66868;42.708;23.404;2023-11-19T10:48:06;2.63;;;2.43;;
77701;SDS011;66868;42.708;23.404;2023-11-19T10:50:35;2.30;;;2.20;;
77701;SDS011;66868;42.708;23.404;2023-11-19T10:53:02;2.60;;;2.40;;
77701;SDS011;66868;42.708;23.404;2023-11-19T10:55:34;2.50;;;2.40;;
77701;SDS011;66868;42.708;23.404;2023-11-19T10:58:04;4.30;;;2.30;;
77701;SDS011;66868;42.708;23.404;2023-11-19T11:00:44;2.97;;;2.87;;
77701;SDS011;66868;42.708;23.404;2023-11-19T11:03:17;2.43;;;2.33;;
77701;SDS011;66868;42.708;23.404;2023-11-19T11:05:47;2.60;;;2.43;;
77701;SDS011;66868;42.708;23.404;2023-11-19T11:08:15;3.17;;;3.07;;
77701;SDS011;66868;42.708;23.404;2023-11-19T11:10:44;3.20;;;3.00;;
77701;SDS011;66868;42.708;23.404;2023-11-19T11:13:17;2.30;;;2.20;;
77701;SDS011;66868;42.708;23.404;2023-11-19T11:15:44;3.08;;;2.78;;
77701;SDS011;66868;42.708;23.404;2023-11-19T11:18:12;3.03;;;2.83;;
77701;SDS011;66868;42.708;23.404;2023-11-19T11:20:38;2.83;;;2.63;;
77701;SDS011;66868;42.708;23.404;2023-11-19T11:39:49;2.60;;;2.37;;
77701;SDS011;66868;42.708;23.404;2023-11-19T11:50:10;2.38;;;2.28;;
77701;SDS011;66868;42.708;23.404;2023-11-19T11:55:35;2.38;;;2.28;;
77701;SDS011;66868;42.708;23.404;2023-11-19T11:58:02;3.13;;;3.00;;
77701;SDS011;66868;42.708;23.404;2023-11-19T12:02:59;3.15;;;3.03;;
77701;SDS011;66868;42.708;23.404;2023-11-19T12:05:25;2.40;;;2.28;;
77701;SDS011;66868;42.708;23.404;2023-11-19T12:08:00;2.50;;;2.30;;
77701;SDS011;66868;42.708;23.404;2023-11-19T12:10:31;2.20;;;2.10;;
77701;SDS011;66868;42.708;23.404;2023-11-19T12:13:01;2.00;;;1.95;;
77701;SDS011;66868;42.708;23.404;2023-11-19T12:15:30;2.30;;;2.20;;
77701;SDS011;66868;42.708;23.404;2023-11-19T12:17:55;3.13;;;2.92;;
77701;SDS011;66868;42.708;23.404;2023-11-19T12:20:22;2.20;;;2.10;;
77701;SDS011;66868;42.708;23.404;2023-11-19T12:22:48;2.60;;;2.50;;
77701;SDS011;66868;42.708;23.404;2023-11-19T12:25:16;3.53;;;3.33;;
77701;SDS011;66868;42.708;23.404;2023-11-19T12:27:43;2.72;;;2.53;;
77701;SDS011;66868;42.708;23.404;2023-11-19T12:30:10;2.65;;;2.55;;
77701;SDS011;66868;42.708;23.404;2023-11-19T12:32:42;3.00;;;2.80;;
77701;SDS011;66868;42.708;23.404;2023-11-19T12:35:09;3.72;;;3.38;;
77701;SDS011;66868;42.708;23.404;2023-11-19T12:37:48;2.15;;;2.05;;
77701;SDS011;66868;42.708;23.404;2023-11-19T12:40:18;2.50;;;2.40;;
77701;SDS011;66868;42.708;23.404;2023-11-19T12:42:45;2.63;;;2.53;;
77701;SDS011;66868;42.708;23.404;2023-11-19T12:45:11;5.20;;;2.40;;
77701;SDS011;66868;42.708;23.404;2023-11-19T12:47:38;3.65;;;3.45;;
77701;SDS011;66868;42.708;23.404;2023-11-19T12:50:05;3.97;;;3.10;;
77701;SDS011;66868;42.708;23.404;2023-11-19T12:52:32;3.70;;;3.50;;
77701;SDS011;66868;42.708;23.404;2023-11-19T12:54:57;4.00;;;3.70;;
77701;SDS011;66868;42.708;23.404;2023-11-19T12:57:41;3.05;;;2.85;;
77701;SDS011;66868;42.708;23.404;2023-11-19T13:00:17;3.00;;;2.70;;
77701;SDS011;66868;42.708;23.404;2023-11-19T13:02:47;4.68;;;4.20;;
77701;SDS011;66868;42.708;23.404;2023-11-19T13:05:35;2.72;;;2.63;;
77701;SDS011;66868;42.708;23.404;2023-11-19T13:08:02;3.17;;;2.97;;
77701;SDS011;66868;42.708;23.404;2023-11-19T13:10:29;3.42;;;3.22;;
77701;SDS011;66868;42.708;23.404;2023-11-19T13:13:08;3.95;;;3.60;;
77701;SDS011;66868;42.708;23.404;2023-11-19T13:15:34;3.38;;;3.17;;
77701;SDS011;66868;42.708;23.404;2023-11-19T13:18:00;3.38;;;3.17;;
77701;SDS011;66868;42.708;23.404;2023-11-19T13:20:27;3.58;;;3.33;;
77701;SDS011;66868;42.708;23.404;2023-11-19T13:22:56;3.95;;;3.75;;
77701;SDS011;66868;42.708;23.404;2023-11-19T13:25:25;3.90;;;3.63;;
77701;SDS011;66868;42.708;23.404;2023-11-19T13:27:52;3.35;;;3.15;;
77701;SDS011;66868;42.708;23.404;2023-11-19T13:30:18;3.78;;;3.50;;
77701;SDS011;66868;42.708;23.404;2023-11-19T13:32:45;3.03;;;2.40;;
77701;SDS011;66868;42.708;23.404;2023-11-19T13:35:14;4.15;;;3.78;;
77701;SDS011;66868;42.708;23.404;2023-11-19T13:37:40;11.88;;;6.15;;
77701;SDS011;66868;42.708;23.404;2023-11-19T13:40:11;4.53;;;3.90;;
77701;SDS011;66868;42.708;23.404;2023-11-19T13:42:46;4.05;;;3.70;;
77701;SDS011;66868;42.708;23.404;2023-11-19T13:45:12;5.03;;;4.63;;
77701;SDS011;66868;42.708;23.404;2023-11-19T13:47:47;5.22;;;4.75;;
77701;SDS011;66868;42.708;23.404;2023-11-19T13:50:14;4.55;;;4.18;;
77701;SDS011;66868;42.708;23.404;2023-11-19T13:52:49;4.93;;;4.45;;
77701;SDS011;66868;42.708;23.404;2023-11-19T13:55:14;4.68;;;4.38;;
77701;SDS011;66868;42.708;23.404;2023-11-19T13:57:40;8.18;;;7.30;;
77701;SDS011;66868;42.708;23.404;2023-11-19T14:00:11;6.65;;;6.03;;
77701;SDS011;66868;42.708;23.404;2023-11-19T14:02:41;5.07;;;4.68;;
77701;SDS011;66868;42.708;23.404;2023-11-19T14:05:08;6.00;;;5.10;;
77701;SDS011;66868;42.708;23.404;2023-11-19T14:07:34;3.95;;;3.65;;
77701;SDS011;66868;42.708;23.404;2023-11-19T14:10:00;4.75;;;4.25;;
77701;SDS011;66868;42.708;23.404;2023-11-19T14:12:26;8.98;;;6.22;;
77701;SDS011;66868;42.708;23.404;2023-11-19T14:14:51;7.38;;;5.47;;
77701;SDS011;66868;42.708;23.404;2023-11-19T14:17:16;5.05;;;4.53;;
77701;SDS011;66868;42.708;23.404;2023-11-19T14:19:46;13.43;;;6.28;;
77701;SDS011;66868;42.708;23.404;2023-11-19T14:22:11;7.57;;;5.55;;
77701;SDS011;66868;42.708;23.404;2023-11-19T14:24:40;9.05;;;6.55;;
77701;SDS011;66868;42.708;23.404;2023-11-19T14:27:07;5.45;;;5.05;;
77701;SDS011;66868;42.708;23.404;2023-11-19T14:29:32;5.10;;;4.70;;
77701;SDS011;66868;42.708;23.404;2023-11-19T14:31:59;5.65;;;5.13;;
77701;SDS011;66868;42.708;23.404;2023-11-19T14:34:25;5.20;;;4.70;;
77701;SDS011;66868;42.708;23.404;2023-11-19T14:36:51;8.00;;;6.38;;
77701;SDS011;66868;42.708;23.404;2023-11-19T14:39:18;5.15;;;4.75;;
77701;SDS011;66868;42.708;23.404;2023-11-19T14:41:44;6.35;;;5.22;;
77701;SDS011;66868;42.708;23.404;2023-11-19T14:44:12;6.38;;;5.57;;
77701;SDS011;66868;42.708;23.404;2023-11-19T14:46:37;8.70;;;6.25;;
77701;SDS011;66868;42.708;23.404;2023-11-19T14:49:03;7.63;;;5.70;;
77701;SDS011;66868;42.708;23.404;2023-11-19T14:51:35;10.00;;;5.68;;
77701;SDS011;66868;42.708;23.404;2023-11-19T14:54:02;8.88;;;5.72;;
77701;SDS011;66868;42.708;23.404;2023-11-19T14:56:29;5.85;;;5.32;;
77701;SDS011;66868;42.708;23.404;2023-11-19T14:58:54;12.25;;;5.60;;
77701;SDS011;66868;42.708;23.404;2023-11-19T15:01:19;7.95;;;5.53;;
77701;SDS011;66868;42.708;23.404;2023-11-19T15:03:45;8.15;;;6.53;;